Terminal Aerodrome Forecast
Issued by NWS Sterling, VA

Current Version | Previous Version | Graphics & Text | Print | Product List | Glossary On
Versions: 1 2 3 4 5 6 7 8 9 10 11 12 13 14 15 16 17 18 19 20 21 22 23 24 25
000
FTUS41 KLWX 242057 AAA
TAFIAD
TAF AMD
KIAD 242057Z 2421/2524 11011KT P6SM -RA OVC050
     FM242300 10011KT P6SM -RA OVC025
     FM250200 09010KT P6SM -RA OVC015
     FM250400 08009KT P6SM -RA OVC008
     FM250900 03006KT 4SM BR OVC008
     FM251100 01006KT 4SM BR OVC010
     FM251500 33006KT P6SM OVC010
     FM251900 33009KT P6SM BKN025=

USA.gov is the U.S. government's official web portal to all federal, state and local government web resources and services.